createdAt,value
2022-09-13T00:01:00.005Z,2.67
2022-09-13T00:03:02.930Z,2.35
2022-09-13T00:05:05.206Z,2.25
2022-09-13T00:07:07.333Z,2.28
2022-09-13T00:09:11.478Z,3.08
2022-09-13T00:11:21.887Z,2.40
2022-09-13T00:13:24.025Z,3.03
2022-09-13T00:15:26.261Z,2.90
2022-09-13T00:17:39.531Z,2.95
2022-09-13T00:19:41.550Z,2.70
2022-09-13T00:21:43.624Z,2.72
2022-09-13T00:23:48.037Z,2.63
2022-09-13T00:25:50.012Z,2.60
2022-09-13T00:27:52.188Z,2.47
2022-09-13T00:29:54.357Z,2.88
2022-09-13T00:31:56.515Z,2.28
2022-09-13T00:34:01.498Z,3.05
2022-09-13T00:36:06.085Z,2.53
2022-09-13T00:38:11.955Z,2.75
2022-09-13T00:40:23.758Z,2.60
2022-09-13T00:42:30.077Z,2.58
2022-09-13T00:44:58.132Z,2.85
2022-09-13T00:47:01.185Z,2.15
2022-09-13T00:49:14.419Z,2.42
2022-09-13T00:51:17.088Z,2.20
2022-09-13T00:53:30.421Z,2.42
2022-09-13T00:55:47.539Z,2.45
2022-09-13T00:57:51.629Z,1.77
2022-09-13T01:00:17.467Z,2.05
2022-09-13T01:02:20.826Z,2.03
2022-09-13T01:04:26.816Z,2.08
2022-09-13T01:06:35.712Z,2.47
2022-09-13T01:08:41.507Z,2.05
2022-09-13T01:10:45.628Z,1.92
2022-09-13T01:13:02.179Z,2.45
2022-09-13T01:15:06.850Z,2.08
2022-09-13T01:17:09.335Z,2.30
2022-09-13T01:19:11.606Z,2.08
2022-09-13T01:21:53.155Z,2.03
2022-09-13T01:24:13.459Z,1.50
2022-09-13T01:26:15.371Z,1.75
2022-09-13T01:28:54.876Z,1.55
2022-09-13T01:31:34.808Z,1.60
2022-09-13T01:33:56.795Z,1.52
2022-09-13T01:36:17.311Z,1.67
2022-09-13T01:38:46.778Z,1.40
2022-09-13T01:41:14.816Z,1.50
2022-09-13T01:43:31.629Z,1.20
2022-09-13T01:46:04.327Z,1.65
2022-09-13T01:48:26.451Z,1.40
2022-09-13T01:50:41.264Z,1.50
2022-09-13T01:52:43.784Z,1.40
2022-09-13T01:54:55.922Z,2.22
2022-09-13T01:57:28.076Z,1.48
2022-09-13T01:59:33.159Z,1.52
2022-09-13T02:01:53.087Z,1.38
2022-09-13T02:04:02.188Z,1.40
2022-09-13T02:06:20.763Z,1.55
2022-09-13T02:08:52.534Z,1.77
2022-09-13T02:11:04.453Z,1.77
2022-09-13T02:13:13.645Z,2.08
2022-09-13T02:15:20.593Z,1.77
2022-09-13T02:17:27.839Z,1.55
2022-09-13T02:19:50.723Z,2.00
2022-09-13T02:22:00.181Z,2.03
2022-09-13T02:24:12.923Z,1.73
2022-09-13T02:26:16.156Z,1.58
2022-09-13T02:28:27.531Z,1.63
2022-09-13T02:30:35.877Z,1.38
2022-09-13T02:32:44.618Z,1.95
2022-09-13T02:34:52.764Z,1.70
2022-09-13T02:36:57.148Z,1.75
2022-09-13T02:39:13.426Z,1.83
2022-09-13T02:41:36.486Z,1.90
2022-09-13T02:43:44.526Z,1.55
2022-09-13T02:45:57.448Z,1.90
2022-09-13T02:48:17.756Z,1.92
2022-09-13T02:50:34.859Z,2.00
2022-09-13T02:52:45.526Z,1.63
2022-09-13T02:57:31.612Z,2.30
2022-09-13T02:59:35.010Z,2.72
2022-09-13T03:01:39.374Z,2.78
2022-09-13T03:03:41.695Z,2.72
2022-09-13T03:05:44.039Z,2.58
2022-09-13T03:07:47.320Z,2.83
2022-09-13T03:10:14.043Z,2.70
2022-09-13T03:13:00.308Z,2.63
2022-09-13T03:15:08.808Z,2.50
2022-09-13T03:17:29.811Z,2.88
2022-09-13T03:20:01.161Z,2.58
2022-09-13T03:22:28.466Z,2.50
2022-09-13T03:24:33.389Z,2.60
2022-09-13T03:27:11.149Z,2.97
2022-09-13T03:29:44.138Z,3.03
2022-09-13T03:32:14.057Z,3.70
2022-09-13T03:34:16.642Z,3.93
2022-09-13T03:36:33.850Z,3.88
2022-09-13T03:38:46.126Z,4.45
2022-09-13T03:41:37.771Z,4.43
2022-09-13T03:44:12.574Z,5.10
2022-09-13T03:49:25.440Z,5.40
2022-09-13T03:51:27.886Z,5.05
2022-09-13T03:53:34.150Z,4.88
2022-09-13T03:55:41.351Z,5.15
2022-09-13T03:57:43.880Z,5.13
2022-09-13T03:59:56.283Z,4.95
2022-09-13T04:01:58.339Z,5.07
2022-09-13T04:04:00.844Z,4.72
2022-09-13T04:06:02.920Z,4.57
2022-09-13T04:08:06.819Z,4.85
2022-09-13T04:10:13.665Z,4.10
2022-09-13T04:12:17.937Z,4.97
2022-09-13T04:14:20.129Z,4.15
2022-09-13T04:16:21.877Z,3.97
2022-09-13T04:18:52.870Z,4.57
2022-09-13T04:21:19.936Z,4.32
2022-09-13T04:23:50.887Z,4.50
2022-09-13T04:26:22.718Z,3.88
2022-09-13T04:28:24.758Z,4.10
2022-09-13T04:30:34.299Z,4.63
2022-09-13T04:32:36.455Z,3.80
2022-09-13T04:34:38.253Z,5.10
2022-09-13T04:36:40.388Z,4.82
2022-09-13T04:38:45.320Z,5.45
2022-09-13T04:40:59.934Z,5.70
2022-09-13T04:43:03.143Z,5.47
2022-09-13T04:45:06.765Z,5.57
2022-09-13T04:47:08.989Z,5.50
2022-09-13T04:49:11.840Z,5.85
2022-09-13T04:51:15.027Z,6.20
2022-09-13T04:53:18.527Z,5.75
2022-09-13T04:55:20.524Z,6.32
2022-09-13T04:57:23.085Z,6.55
2022-09-13T04:59:25.094Z,6.47
2022-09-13T05:01:28.162Z,6.78
2022-09-13T05:03:31.740Z,6.72
2022-09-13T05:05:34.097Z,7.45
2022-09-13T05:07:36.062Z,6.75
2022-09-13T05:09:38.411Z,6.68
2022-09-13T05:11:41.154Z,6.53
2022-09-13T05:13:43.110Z,6.00
2022-09-13T05:15:45.186Z,6.82
2022-09-13T05:17:46.909Z,6.40
2022-09-13T05:19:49.447Z,6.95
2022-09-13T05:21:51.514Z,6.43
2022-09-13T05:23:54.880Z,6.25
2022-09-13T05:25:58.314Z,6.80
2022-09-13T05:28:00.614Z,6.50
2022-09-13T05:30:02.642Z,6.88
2022-09-13T05:32:04.955Z,7.30
2022-09-13T05:34:10.906Z,8.00
2022-09-13T05:36:12.990Z,6.78
2022-09-13T05:38:15.422Z,7.10
2022-09-13T05:40:17.668Z,7.18
2022-09-13T05:42:19.890Z,7.13
2022-09-13T05:44:22.030Z,6.65
2022-09-13T05:46:24.199Z,6.93
2022-09-13T05:48:25.873Z,6.80
2022-09-13T05:50:56.825Z,6.75
2022-09-13T05:52:53.925Z,6.10
2022-09-13T05:54:55.992Z,6.55
2022-09-13T05:56:58.131Z,6.05
2022-09-13T05:59:00.559Z,5.82
2022-09-13T06:01:02.608Z,5.90
2022-09-13T06:03:04.706Z,5.75
2022-09-13T06:05:07.707Z,5.00
2022-09-13T06:07:12.609Z,5.13
2022-09-13T06:09:14.688Z,4.55
2022-09-13T06:11:16.711Z,4.15
2022-09-13T06:13:18.779Z,4.00
2022-09-13T06:15:21.160Z,3.65
2022-09-13T06:17:23.245Z,3.65
2022-09-13T06:19:24.871Z,3.38
2022-09-13T06:21:29.170Z,3.10
2022-09-13T06:23:31.990Z,3.17
2022-09-13T06:25:33.958Z,3.10
2022-09-13T06:27:36.505Z,3.22
2022-09-13T06:29:39.800Z,3.30
2022-09-13T06:31:45.221Z,3.38
2022-09-13T06:33:47.857Z,3.70
2022-09-13T06:35:50.252Z,2.72
2022-09-13T06:37:55.263Z,2.83
2022-09-13T06:39:58.495Z,2.75
2022-09-13T06:42:01.461Z,2.08
2022-09-13T06:44:03.818Z,1.63
2022-09-13T06:46:08.138Z,1.30
2022-09-13T06:48:10.220Z,2.20
2022-09-13T06:50:11.934Z,1.75
2022-09-13T06:52:14.067Z,1.48
2022-09-13T06:54:16.646Z,2.13
2022-09-13T06:56:29.523Z,2.00
2022-09-13T06:58:32.865Z,1.77
2022-09-13T07:00:34.879Z,2.00
2022-09-13T07:02:45.056Z,2.08
2022-09-13T07:04:47.132Z,2.03
2022-09-13T07:06:50.551Z,2.28
2022-09-13T07:08:53.913Z,2.20
2022-09-13T07:10:58.291Z,1.60
2022-09-13T07:13:00.463Z,1.50
2022-09-13T07:15:02.617Z,1.08
2022-09-13T07:17:06.292Z,1.50
2022-09-13T07:19:26.835Z,1.40
2022-09-13T07:21:29.590Z,1.40
2022-09-13T07:23:33.713Z,1.20
2022-09-13T07:25:35.636Z,1.52
2022-09-13T07:27:37.586Z,1.30
2022-09-13T07:29:39.959Z,0.80
2022-09-13T07:31:45.130Z,1.13
2022-09-13T07:33:47.771Z,1.25
2022-09-13T07:35:55.352Z,1.00
2022-09-13T07:37:56.958Z,1.33
2022-09-13T07:40:13.778Z,1.50
2022-09-13T07:42:15.501Z,1.45
2022-09-13T07:44:17.295Z,1.45
2022-09-13T07:46:26.849Z,1.08
2022-09-13T07:48:47.115Z,1.65
2022-09-13T07:51:00.133Z,1.58
2022-09-13T07:53:01.922Z,1.17
2022-09-13T07:55:04.316Z,1.58
2022-09-13T07:57:05.965Z,1.48
2022-09-13T07:59:13.190Z,1.42
2022-09-13T08:01:18.211Z,1.27
2022-09-13T08:03:19.997Z,1.60
2022-09-13T08:05:21.608Z,2.22
2022-09-13T08:07:23.317Z,1.90
2022-09-13T08:09:25.947Z,1.70
2022-09-13T08:11:36.627Z,1.58
2022-09-13T08:15:40.283Z,1.52
2022-09-13T08:17:42.014Z,1.70
2022-09-13T08:19:43.714Z,1.73
2022-09-13T08:21:46.319Z,1.45
2022-09-13T08:23:48.230Z,1.65
2022-09-13T08:25:50.442Z,1.92
2022-09-13T08:27:52.272Z,2.20
2022-09-13T08:30:06.021Z,1.73
2022-09-13T08:32:07.594Z,2.53
2022-09-13T08:34:15.134Z,1.73
2022-09-13T08:36:17.251Z,2.05
2022-09-13T08:38:19.771Z,2.47
2022-09-13T08:40:23.071Z,2.10
2022-09-13T08:42:50.313Z,2.60
2022-09-13T08:44:59.307Z,1.90
2022-09-13T08:47:24.522Z,2.58
2022-09-13T08:49:32.474Z,1.85
2022-09-13T08:51:48.375Z,2.40
2022-09-13T08:53:51.794Z,2.03
2022-09-13T08:56:06.350Z,2.17
2022-09-13T08:58:56.024Z,2.60
2022-09-13T09:01:18.484Z,2.00
2022-09-13T09:03:46.801Z,2.05
2022-09-13T09:05:50.803Z,1.52
2022-09-13T09:08:16.398Z,1.80
2022-09-13T09:10:22.990Z,1.70
2022-09-13T09:12:42.578Z,1.48
2022-09-13T09:14:57.824Z,1.80
2022-09-13T09:17:25.204Z,1.88
2022-09-13T09:19:36.426Z,1.90
2022-09-13T09:21:38.353Z,1.55
2022-09-13T09:23:43.325Z,1.73
2022-09-13T09:25:46.039Z,1.60
2022-09-13T09:27:47.779Z,1.73
2022-09-13T09:32:18.774Z,1.50
2022-09-13T09:34:45.391Z,1.27
2022-09-13T09:37:04.742Z,1.58
2022-09-13T09:39:11.626Z,1.33
2022-09-13T09:41:38.439Z,1.50
2022-09-13T09:43:46.968Z,1.77
2022-09-13T09:45:52.070Z,1.25
2022-09-13T09:47:55.607Z,1.90
2022-09-13T09:50:14.530Z,1.65
2022-09-13T09:52:22.844Z,1.65
2022-09-13T09:54:27.176Z,1.83
2022-09-13T09:56:33.983Z,1.63
2022-09-13T09:58:54.145Z,1.55
2022-09-13T10:00:58.054Z,1.60
2022-09-13T10:03:04.272Z,1.50
2022-09-13T10:05:07.063Z,1.85
2022-09-13T10:07:28.950Z,1.80
2022-09-13T10:09:30.670Z,1.80
2022-09-13T10:11:45.344Z,2.42
2022-09-13T10:13:59.392Z,1.80
2022-09-13T10:16:03.518Z,1.55
2022-09-13T10:20:39.769Z,1.92
2022-09-13T10:22:43.006Z,1.98
2022-09-13T10:24:44.727Z,2.20
2022-09-13T10:26:46.632Z,2.30
2022-09-13T10:28:50.987Z,1.50
2022-09-13T10:31:00.885Z,1.50
2022-09-13T10:33:03.996Z,1.83
2022-09-13T10:35:19.393Z,1.80
2022-09-13T10:37:26.556Z,2.42
2022-09-13T10:39:30.770Z,1.77
2022-09-13T10:41:39.431Z,2.83
2022-09-13T10:43:41.144Z,1.83
2022-09-13T10:45:43.006Z,2.60
2022-09-13T10:47:48.113Z,2.40
2022-09-13T10:49:54.868Z,2.10
2022-09-13T10:51:56.474Z,2.35
2022-09-13T10:54:17.313Z,2.17
2022-09-13T10:58:26.987Z,2.58
2022-09-13T11:00:33.041Z,2.38
2022-09-13T11:03:12.240Z,2.47
2022-09-13T11:05:30.055Z,2.10
2022-09-13T11:07:53.168Z,2.97
2022-09-13T11:10:15.347Z,3.00
2022-09-13T11:12:30.048Z,2.75
2022-09-13T11:14:34.453Z,2.08
2022-09-13T11:17:00.572Z,2.50
2022-09-13T11:19:08.548Z,2.65
2022-09-13T11:21:29.945Z,2.17
2022-09-13T11:23:50.302Z,2.97
2022-09-13T11:26:10.264Z,2.75
2022-09-13T11:28:27.127Z,2.13
2022-09-13T11:30:35.846Z,2.83
2022-09-13T11:32:43.143Z,3.30
2022-09-13T11:35:00.027Z,2.40
2022-09-13T11:37:09.908Z,3.08
2022-09-13T11:39:31.912Z,3.00
2022-09-13T11:42:10.426Z,2.80
2022-09-13T11:44:47.330Z,2.47
2022-09-13T11:47:14.398Z,3.25
2022-09-13T11:49:49.958Z,2.42
2022-09-13T11:52:11.000Z,2.03
2022-09-13T11:54:21.277Z,2.28
2022-09-13T11:56:38.072Z,2.83
2022-09-13T11:59:23.371Z,2.83
2022-09-13T12:01:31.115Z,2.35
2022-09-13T12:03:43.945Z,2.30
2022-09-13T12:05:52.739Z,2.70
2022-09-13T12:08:20.462Z,2.20
2022-09-13T12:10:39.214Z,2.53
2022-09-13T12:12:42.861Z,2.33
2022-09-13T12:15:07.996Z,2.72
2022-09-13T12:17:23.803Z,2.22
2022-09-13T12:19:45.919Z,2.50
2022-09-13T12:21:50.274Z,2.78
2022-09-13T12:23:57.635Z,2.88
2022-09-13T12:26:15.890Z,3.00
2022-09-13T12:28:34.290Z,2.40
2022-09-13T12:30:52.675Z,2.40
2022-09-13T12:32:58.851Z,3.00
2022-09-13T12:35:08.545Z,2.42
2022-09-13T12:37:58.186Z,2.78
2022-09-13T12:40:38.317Z,2.40
2022-09-13T12:42:51.753Z,2.17
2022-09-13T12:45:12.216Z,2.10
2022-09-13T12:47:16.644Z,2.60
2022-09-13T12:49:39.879Z,2.03
2022-09-13T12:52:17.453Z,2.95
2022-09-13T12:54:42.221Z,2.10
2022-09-13T12:56:56.896Z,2.25
2022-09-13T12:59:20.776Z,2.55
2022-09-13T13:01:29.374Z,1.63
2022-09-13T13:03:35.545Z,1.77
2022-09-13T13:05:45.091Z,1.50
2022-09-13T13:07:54.602Z,1.63
2022-09-13T13:10:13.745Z,2.03
2022-09-13T13:12:51.090Z,1.95
2022-09-13T13:14:53.590Z,2.35
2022-09-13T13:17:15.698Z,2.00
2022-09-13T13:19:37.061Z,2.30
2022-09-13T13:21:40.566Z,2.70
2022-09-13T13:23:42.678Z,2.00
2022-09-13T13:26:02.438Z,1.98
2022-09-13T13:28:04.128Z,2.20
2022-09-13T13:30:35.246Z,2.60
2022-09-13T13:32:36.908Z,1.70
2022-09-13T13:34:46.167Z,1.80
2022-09-13T13:36:50.794Z,2.60
2022-09-13T13:38:53.795Z,2.30
2022-09-13T13:41:09.788Z,2.30
2022-09-13T13:43:30.781Z,2.15
2022-09-13T13:45:32.653Z,2.28
2022-09-13T13:47:34.286Z,1.92
2022-09-13T13:49:38.961Z,2.42
2022-09-13T13:51:41.244Z,1.92
2022-09-13T13:54:05.894Z,2.20
2022-09-13T13:56:35.280Z,2.42
2022-09-13T13:59:00.286Z,2.20
2022-09-13T14:01:02.792Z,1.85
2022-09-13T14:03:16.327Z,1.88
2022-09-13T14:05:42.117Z,2.00
2022-09-13T14:07:58.179Z,2.58
2022-09-13T14:10:03.641Z,1.77
2022-09-13T14:12:14.770Z,1.80
2022-09-13T14:14:34.871Z,1.80
2022-09-13T14:16:42.726Z,1.80
2022-09-13T14:18:55.839Z,1.70
2022-09-13T14:21:02.704Z,1.60
2022-09-13T14:23:18.864Z,1.60
2022-09-13T14:25:20.427Z,1.52
2022-09-13T14:27:26.178Z,2.10
2022-09-13T14:29:28.014Z,1.90
2022-09-13T14:31:29.704Z,2.05
2022-09-13T14:33:37.544Z,2.30
2022-09-13T14:35:41.284Z,2.45
2022-09-13T14:37:43.024Z,2.40
2022-09-13T14:39:55.666Z,2.10
2022-09-13T14:42:00.637Z,2.33
2022-09-13T14:44:27.763Z,1.92
2022-09-13T14:46:42.000Z,2.80
2022-09-13T14:49:08.867Z,2.20
2022-09-13T14:51:25.393Z,2.20
2022-09-13T14:53:31.093Z,2.30
2022-09-13T14:55:43.586Z,2.38
2022-09-13T14:57:51.439Z,2.45
2022-09-13T14:59:57.108Z,2.33
2022-09-13T15:02:16.496Z,2.00
2022-09-13T15:04:19.751Z,2.08
2022-09-13T15:06:29.099Z,2.20
2022-09-13T15:08:33.747Z,3.22
2022-09-13T15:10:44.085Z,2.55
2022-09-13T15:12:58.104Z,3.25
2022-09-13T15:15:26.872Z,3.20
2022-09-13T15:17:28.567Z,2.97
2022-09-13T15:19:36.007Z,3.53
2022-09-13T15:21:37.626Z,3.28
2022-09-13T15:23:43.195Z,3.25
2022-09-13T15:25:54.475Z,2.67
2022-09-13T15:27:57.560Z,3.60
2022-09-13T15:30:03.261Z,3.35
2022-09-13T15:32:06.711Z,2.85
2022-09-13T15:34:17.728Z,2.95
2022-09-13T15:36:19.340Z,2.72
2022-09-13T15:38:30.898Z,2.80
2022-09-13T15:40:46.062Z,2.70
2022-09-13T15:42:52.536Z,2.25
2022-09-13T15:44:54.139Z,2.83
2022-09-13T15:47:08.249Z,3.00
2022-09-13T15:49:16.331Z,2.83
2022-09-13T15:51:18.453Z,2.72
2022-09-13T15:53:20.076Z,2.83
2022-09-13T15:55:22.049Z,2.55
2022-09-13T15:57:26.590Z,2.63
2022-09-13T15:59:28.304Z,2.35
2022-09-13T16:01:29.959Z,2.97
2022-09-13T16:03:31.835Z,2.22
2022-09-13T16:05:33.509Z,2.42
2022-09-13T16:07:35.934Z,2.53
2022-09-13T16:09:38.870Z,2.53
2022-09-13T16:11:40.592Z,2.50
2022-09-13T16:13:42.211Z,2.88
2022-09-13T16:15:43.820Z,2.78
2022-09-13T16:17:45.632Z,2.55
2022-09-13T16:19:47.279Z,3.03
2022-09-13T16:21:49.754Z,3.45
2022-09-13T16:23:51.351Z,3.03
2022-09-13T16:25:56.866Z,3.00
2022-09-13T16:27:59.303Z,3.40
2022-09-13T16:30:01.400Z,3.00
2022-09-13T16:32:03.119Z,3.55
2022-09-13T16:34:05.058Z,3.20
2022-09-13T16:36:06.948Z,3.15
2022-09-13T16:38:10.503Z,2.85
2022-09-13T16:40:12.307Z,2.58
2022-09-13T16:42:15.727Z,2.70
2022-09-13T16:44:18.210Z,3.10
2022-09-13T16:46:20.489Z,3.50
2022-09-13T16:48:22.221Z,2.85
2022-09-13T16:50:23.830Z,3.20
2022-09-13T16:52:25.791Z,3.88
2022-09-13T16:54:31.155Z,3.33
2022-09-13T16:56:33.312Z,3.33
2022-09-13T16:58:49.038Z,2.97
2022-09-13T17:00:51.846Z,3.30
2022-09-13T17:02:53.612Z,3.08
2022-09-13T17:04:55.780Z,3.25
2022-09-13T17:06:57.686Z,3.15
2022-09-13T17:09:01.697Z,3.38
2022-09-13T17:11:09.401Z,3.28
2022-09-13T17:13:11.153Z,3.08
2022-09-13T17:15:13.157Z,3.22
2022-09-13T17:17:16.517Z,3.38
2022-09-13T17:19:21.788Z,2.50
2022-09-13T17:21:24.108Z,2.70
2022-09-13T17:23:26.326Z,2.67
2022-09-13T17:25:27.972Z,2.20
2022-09-13T17:27:29.581Z,2.80
2022-09-13T17:29:31.596Z,2.45
2022-09-13T17:31:33.338Z,2.30
2022-09-13T17:33:35.202Z,2.30
2022-09-13T17:35:36.827Z,2.15
2022-09-13T17:37:38.678Z,1.80
2022-09-13T17:39:40.698Z,1.88
2022-09-13T17:41:42.514Z,1.98
2022-09-13T17:43:45.497Z,4.65
2022-09-13T17:45:47.231Z,5.78
2022-09-13T17:47:51.964Z,3.42
2022-09-13T17:49:54.135Z,5.82
2022-09-13T17:51:55.815Z,2.67
2022-09-13T17:54:02.814Z,3.92
2022-09-13T17:56:04.456Z,4.13
2022-09-13T17:58:06.064Z,3.47
2022-09-13T18:00:10.713Z,2.35
2022-09-13T18:02:12.414Z,1.90
2022-09-13T18:04:16.006Z,1.70
2022-09-13T18:06:17.723Z,2.10
2022-09-13T18:08:19.490Z,2.05
2022-09-13T18:10:48.868Z,2.53
2022-09-13T18:12:42.787Z,2.42
2022-09-13T18:14:44.421Z,3.60
2022-09-13T18:16:46.795Z,3.22
2022-09-13T18:18:51.170Z,3.97
2022-09-13T18:20:52.922Z,4.97
2022-09-13T18:22:54.614Z,3.45
2022-09-13T18:24:56.266Z,3.28
2022-09-13T18:26:57.869Z,2.60
2022-09-13T18:29:02.809Z,3.00
2022-09-13T18:31:07.094Z,4.10
2022-09-13T18:33:11.515Z,5.20
2022-09-13T18:35:13.367Z,8.35
2022-09-13T18:37:15.091Z,4.28
2022-09-13T18:39:22.202Z,4.78
2022-09-13T18:41:26.254Z,3.80
2022-09-13T18:43:27.996Z,3.90
2022-09-13T18:45:29.611Z,3.50
2022-09-13T18:47:31.498Z,4.15
2022-09-13T18:49:33.262Z,3.10
2022-09-13T18:51:36.127Z,3.05
2022-09-13T18:53:38.113Z,2.63
2022-09-13T18:55:40.139Z,2.88
2022-09-13T18:57:41.863Z,2.10
2022-09-13T18:59:43.541Z,3.20
2022-09-13T19:01:45.759Z,3.28
2022-09-13T19:03:58.979Z,3.60
2022-09-13T19:06:18.648Z,2.55
2022-09-13T19:08:20.377Z,3.42
2022-09-13T19:10:22.363Z,3.00
2022-09-13T19:12:23.988Z,3.30
2022-09-13T19:14:27.716Z,3.15
2022-09-13T19:16:29.495Z,3.47
2022-09-13T19:18:32.059Z,2.47
2022-09-13T19:20:34.731Z,2.38
2022-09-13T19:22:36.889Z,1.88
2022-09-13T19:24:38.848Z,2.17
2022-09-13T19:26:40.822Z,1.83
2022-09-13T19:28:47.538Z,2.08
2022-09-13T19:30:50.825Z,1.98
2022-09-13T19:32:52.539Z,2.10
2022-09-13T19:34:54.219Z,1.80
2022-09-13T19:36:58.364Z,2.00
2022-09-13T19:39:01.064Z,2.47
2022-09-13T19:41:13.854Z,2.08
2022-09-13T19:43:15.865Z,2.28
2022-09-13T19:45:17.496Z,1.63
2022-09-13T19:49:40.799Z,2.70
2022-09-13T19:51:47.543Z,2.22
2022-09-13T19:53:57.619Z,2.15
2022-09-13T19:56:00.402Z,1.95
2022-09-13T19:58:02.071Z,1.80
2022-09-13T20:00:04.344Z,2.45
2022-09-13T20:02:06.792Z,1.95
2022-09-13T20:04:11.625Z,2.60
2022-09-13T20:06:14.206Z,2.33
2022-09-13T20:08:16.146Z,2.45
2022-09-13T20:10:18.698Z,2.70
2022-09-13T20:12:21.824Z,2.90
2022-09-13T20:14:25.011Z,2.78
2022-09-13T20:16:30.018Z,2.67
2022-09-13T20:18:40.847Z,3.28
2022-09-13T20:20:43.590Z,2.78
2022-09-13T20:22:45.270Z,2.83
2022-09-13T20:24:47.070Z,2.03
2022-09-13T20:26:52.256Z,2.55
2022-09-13T20:28:59.895Z,2.55
2022-09-13T20:31:02.216Z,2.53
2022-09-13T20:33:05.155Z,2.40
2022-09-13T20:35:09.304Z,2.50
2022-09-13T20:37:11.692Z,2.83
2022-09-13T20:39:15.172Z,2.60
2022-09-13T20:41:19.417Z,2.95
2022-09-13T20:43:21.054Z,3.00
2022-09-13T20:45:23.998Z,3.78
2022-09-13T20:47:25.667Z,3.42
2022-09-13T20:49:29.331Z,3.72
2022-09-13T20:51:34.523Z,2.95
2022-09-13T20:53:37.887Z,2.67
2022-09-13T20:55:40.534Z,2.67
2022-09-13T20:57:42.835Z,3.58
2022-09-13T20:59:44.835Z,2.75
2022-09-13T21:01:46.516Z,2.75
2022-09-13T21:03:50.755Z,2.78
2022-09-13T21:05:52.438Z,2.35
2022-09-13T21:08:12.483Z,2.20
2022-09-13T21:10:15.170Z,2.45
2022-09-13T21:12:17.021Z,2.33
2022-09-13T21:14:21.734Z,2.50
2022-09-13T21:16:29.043Z,1.90
2022-09-13T21:18:41.744Z,2.25
2022-09-13T21:20:43.485Z,2.15
2022-09-13T21:22:45.104Z,2.45
2022-09-13T21:24:49.428Z,2.58
2022-09-13T21:26:51.063Z,2.20
2022-09-13T21:28:53.956Z,2.42
2022-09-13T21:31:00.100Z,2.40
2022-09-13T21:33:03.683Z,2.22
2022-09-13T21:35:05.962Z,2.55
2022-09-13T21:37:07.634Z,2.42
2022-09-13T21:39:09.329Z,2.40
2022-09-13T21:41:16.816Z,2.38
2022-09-13T21:43:19.682Z,2.50
2022-09-13T21:45:21.347Z,2.40
2022-09-13T21:47:23.039Z,2.90
2022-09-13T21:49:24.711Z,2.75
2022-09-13T21:51:28.978Z,1.95
2022-09-13T21:53:39.515Z,2.20
2022-09-13T21:55:41.224Z,2.03
2022-09-13T21:57:44.498Z,2.80
2022-09-13T21:59:46.235Z,2.17
2022-09-13T22:01:56.789Z,2.08
2022-09-13T22:03:59.679Z,2.03
2022-09-13T22:06:01.688Z,1.90
2022-09-13T22:08:03.346Z,1.90
2022-09-13T22:10:05.514Z,2.03
2022-09-13T22:12:12.863Z,2.10
2022-09-13T22:14:18.170Z,1.90
2022-09-13T22:16:21.678Z,2.85
2022-09-13T22:18:23.660Z,2.30
2022-09-13T22:20:25.894Z,2.28
2022-09-13T22:22:27.897Z,2.08
2022-09-13T22:24:36.111Z,2.13
2022-09-13T22:26:40.881Z,2.63
2022-09-13T22:28:47.621Z,2.30
2022-09-13T22:30:49.989Z,2.40
2022-09-13T22:32:52.292Z,2.45
2022-09-13T22:34:54.290Z,2.13
2022-09-13T22:36:56.795Z,2.10
2022-09-13T22:38:59.337Z,2.10
2022-09-13T22:41:04.610Z,2.05
2022-09-13T22:43:06.965Z,1.98
2022-09-13T22:45:09.540Z,2.35
2022-09-13T22:47:11.768Z,1.90
2022-09-13T22:49:19.125Z,2.53
2022-09-13T22:51:21.638Z,1.77
2022-09-13T22:53:25.458Z,2.60
2022-09-13T22:55:27.485Z,2.10
2022-09-13T22:57:29.577Z,2.13
2022-09-13T22:59:31.699Z,2.40
2022-09-13T23:01:35.510Z,2.17
2022-09-13T23:03:39.806Z,1.65
2022-09-13T23:05:51.365Z,1.80
2022-09-13T23:07:53.379Z,1.80
2022-09-13T23:09:55.344Z,1.85
2022-09-13T23:11:57.590Z,2.72
2022-09-13T23:14:02.918Z,1.70
2022-09-13T23:16:06.979Z,1.40
2022-09-13T23:18:10.064Z,1.35
2022-09-13T23:20:11.713Z,1.30
2022-09-13T23:22:13.844Z,1.63
2022-09-13T23:24:18.145Z,1.40
2022-09-13T23:26:23.074Z,1.35
2022-09-13T23:28:25.431Z,1.48
2022-09-13T23:30:27.431Z,1.52
2022-09-13T23:32:29.396Z,1.75
2022-09-13T23:34:31.057Z,1.50
2022-09-13T23:36:36.038Z,1.60
2022-09-13T23:38:46.659Z,1.70
2022-09-13T23:40:48.588Z,2.05
2022-09-13T23:42:50.247Z,1.52
2022-09-13T23:44:52.275Z,1.88
2022-09-13T23:46:54.313Z,1.70
2022-09-13T23:48:58.005Z,1.60
2022-09-13T23:51:06.450Z,1.65
2022-09-13T23:53:08.582Z,1.35
2022-09-13T23:55:14.714Z,1.92
2022-09-13T23:57:16.981Z,1.30
2022-09-13T23:59:19.083Z,1.38
